sensor_id;sensor_type;location;lat;lon;timestamp;P1;durP1;ratioP1;P2;durP2;ratioP2
77522;SDS011;66637;-29.628;-49.938;2023-05-01T00:56:17;4.25;;;2.70;;
77522;SDS011;66637;-29.628;-49.938;2023-05-01T00:58:50;3.95;;;2.40;;
77522;SDS011;66637;-29.628;-49.938;2023-05-01T01:01:24;5.88;;;2.55;;
77522;SDS011;66637;-29.628;-49.938;2023-05-01T01:03:55;5.07;;;2.58;;
77522;SDS011;66637;-29.628;-49.938;2023-05-01T01:06:33;4.57;;;2.50;;
77522;SDS011;66637;-29.628;-49.938;2023-05-01T01:09:41;5.90;;;2.53;;
77522;SDS011;66637;-29.628;-49.938;2023-05-01T01:12:23;5.55;;;2.58;;
77522;SDS011;66637;-29.628;-49.938;2023-05-01T01:18:02;3.72;;;2.42;;
77522;SDS011;66637;-29.628;-49.938;2023-05-01T01:20:49;5.95;;;2.47;;
77522;SDS011;66637;-29.628;-49.938;2023-05-01T01:35:20;4.90;;;2.53;;
77522;SDS011;66637;-29.628;-49.938;2023-05-01T01:44:12;3.63;;;2.28;;
77522;SDS011;66637;-29.628;-49.938;2023-05-01T01:46:50;8.45;;;2.63;;
77522;SDS011;66637;-29.628;-49.938;2023-05-01T01:49:23;4.10;;;2.40;;
77522;SDS011;66637;-29.628;-49.938;2023-05-01T01:51:56;6.50;;;2.53;;
77522;SDS011;66637;-29.628;-49.938;2023-05-01T01:54:32;3.72;;;2.30;;
77522;SDS011;66637;-29.628;-49.938;2023-05-01T01:57:08;6.93;;;2.67;;
77522;SDS011;66637;-29.628;-49.938;2023-05-01T01:59:41;3.42;;;2.10;;
77522;SDS011;66637;-29.628;-49.938;2023-05-01T02:02:14;5.38;;;2.05;;
77522;SDS011;66637;-29.628;-49.938;2023-05-01T02:04:50;5.03;;;1.98;;
77522;SDS011;66637;-29.628;-49.938;2023-05-01T02:07:22;4.82;;;1.80;;
77522;SDS011;66637;-29.628;-49.938;2023-05-01T02:09:53;4.72;;;1.80;;
77522;SDS011;66637;-29.628;-49.938;2023-05-01T02:12:25;3.80;;;1.88;;
77522;SDS011;66637;-29.628;-49.938;2023-05-01T02:14:58;3.65;;;1.70;;
77522;SDS011;66637;-29.628;-49.938;2023-05-01T02:17:30;5.18;;;1.92;;
77522;SDS011;66637;-29.628;-49.938;2023-05-01T02:20:02;3.35;;;1.65;;
77522;SDS011;66637;-29.628;-49.938;2023-05-01T02:22:34;3.63;;;1.85;;
77522;SDS011;66637;-29.628;-49.938;2023-05-01T02:25:08;1.60;;;1.33;;
77522;SDS011;66637;-29.628;-49.938;2023-05-01T02:27:46;8.23;;;1.77;;
77522;SDS011;66637;-29.628;-49.938;2023-05-01T02:30:31;2.28;;;1.42;;
77522;SDS011;66637;-29.628;-49.938;2023-05-01T02:33:05;3.20;;;1.65;;
77522;SDS011;66637;-29.628;-49.938;2023-05-01T02:35:38;3.65;;;1.52;;
77522;SDS011;66637;-29.628;-49.938;2023-05-01T02:38:11;3.65;;;1.60;;
77522;SDS011;66637;-29.628;-49.938;2023-05-01T02:40:46;2.47;;;1.35;;
77522;SDS011;66637;-29.628;-49.938;2023-05-01T02:43:21;4.05;;;1.50;;
77522;SDS011;66637;-29.628;-49.938;2023-05-01T02:45:55;6.07;;;1.50;;
77522;SDS011;66637;-29.628;-49.938;2023-05-01T02:48:28;3.05;;;1.50;;
77522;SDS011;66637;-29.628;-49.938;2023-05-01T02:51:02;3.22;;;1.52;;
77522;SDS011;66637;-29.628;-49.938;2023-05-01T02:53:34;2.05;;;1.30;;
77522;SDS011;66637;-29.628;-49.938;2023-05-01T02:56:26;6.05;;;1.60;;
77522;SDS011;66637;-29.628;-49.938;2023-05-01T02:58:57;4.13;;;1.40;;
77522;SDS011;66637;-29.628;-49.938;2023-05-01T03:01:28;2.80;;;1.50;;
77522;SDS011;66637;-29.628;-49.938;2023-05-01T03:04:00;2.92;;;1.30;;
77522;SDS011;66637;-29.628;-49.938;2023-05-01T03:06:31;2.45;;;1.50;;
77522;SDS011;66637;-29.628;-49.938;2023-05-01T03:09:03;1.98;;;1.20;;
77522;SDS011;66637;-29.628;-49.938;2023-05-01T03:11:33;3.30;;;1.50;;
77522;SDS011;66637;-29.628;-49.938;2023-05-01T03:14:05;4.03;;;1.80;;
77522;SDS011;66637;-29.628;-49.938;2023-05-01T03:16:35;1.95;;;1.45;;
77522;SDS011;66637;-29.628;-49.938;2023-05-01T03:19:06;3.90;;;1.50;;
77522;SDS011;66637;-29.628;-49.938;2023-05-01T03:21:37;2.40;;;1.58;;
77522;SDS011;66637;-29.628;-49.938;2023-05-01T03:24:07;4.25;;;1.60;;
77522;SDS011;66637;-29.628;-49.938;2023-05-01T03:26:39;4.50;;;1.80;;
77522;SDS011;66637;-29.628;-49.938;2023-05-01T03:29:09;3.65;;;1.63;;
77522;SDS011;66637;-29.628;-49.938;2023-05-01T03:31:43;3.60;;;1.48;;
77522;SDS011;66637;-29.628;-49.938;2023-05-01T03:34:14;3.90;;;1.65;;
77522;SDS011;66637;-29.628;-49.938;2023-05-01T03:36:48;3.42;;;1.70;;
77522;SDS011;66637;-29.628;-49.938;2023-05-01T03:39:18;5.28;;;1.60;;
77522;SDS011;66637;-29.628;-49.938;2023-05-01T03:42:07;2.83;;;1.70;;
77522;SDS011;66637;-29.628;-49.938;2023-05-01T03:44:40;2.92;;;1.45;;
77522;SDS011;66637;-29.628;-49.938;2023-05-01T03:47:12;2.22;;;1.60;;
77522;SDS011;66637;-29.628;-49.938;2023-05-01T03:49:44;4.00;;;1.42;;
77522;SDS011;66637;-29.628;-49.938;2023-05-01T03:52:14;2.88;;;1.70;;
77522;SDS011;66637;-29.628;-49.938;2023-05-01T03:54:45;1.98;;;1.50;;
77522;SDS011;66637;-29.628;-49.938;2023-05-01T03:57:21;3.53;;;1.70;;
77522;SDS011;66637;-29.628;-49.938;2023-05-01T03:59:52;3.13;;;1.92;;
77522;SDS011;66637;-29.628;-49.938;2023-05-01T04:02:23;2.03;;;1.55;;
77522;SDS011;66637;-29.628;-49.938;2023-05-01T04:04:54;3.08;;;1.45;;
77522;SDS011;66637;-29.628;-49.938;2023-05-01T04:07:27;3.90;;;2.03;;
77522;SDS011;66637;-29.628;-49.938;2023-05-01T04:09:57;5.15;;;1.80;;
77522;SDS011;66637;-29.628;-49.938;2023-05-01T04:12:28;6.20;;;2.20;;
77522;SDS011;66637;-29.628;-49.938;2023-05-01T04:14:58;6.28;;;2.45;;
77522;SDS011;66637;-29.628;-49.938;2023-05-01T04:17:31;11.82;;;2.92;;
77522;SDS011;66637;-29.628;-49.938;2023-05-01T04:20:02;9.60;;;3.00;;
77522;SDS011;66637;-29.628;-49.938;2023-05-01T04:22:36;6.93;;;2.63;;
77522;SDS011;66637;-29.628;-49.938;2023-05-01T04:25:07;12.18;;;3.42;;
77522;SDS011;66637;-29.628;-49.938;2023-05-01T04:27:40;7.07;;;2.83;;
77522;SDS011;66637;-29.628;-49.938;2023-05-01T04:30:11;4.20;;;2.42;;
77522;SDS011;66637;-29.628;-49.938;2023-05-01T04:32:42;9.75;;;3.28;;
77522;SDS011;66637;-29.628;-49.938;2023-05-01T04:35:13;8.75;;;2.70;;
77522;SDS011;66637;-29.628;-49.938;2023-05-01T04:37:44;6.10;;;2.97;;
77522;SDS011;66637;-29.628;-49.938;2023-05-01T04:40:15;8.10;;;3.00;;
77522;SDS011;66637;-29.628;-49.938;2023-05-01T04:42:45;7.15;;;2.30;;
77522;SDS011;66637;-29.628;-49.938;2023-05-01T04:45:16;4.25;;;2.30;;
77522;SDS011;66637;-29.628;-49.938;2023-05-01T04:47:47;4.88;;;2.67;;
77522;SDS011;66637;-29.628;-49.938;2023-05-01T04:50:19;6.78;;;2.50;;
77522;SDS011;66637;-29.628;-49.938;2023-05-01T04:52:50;3.75;;;2.53;;
77522;SDS011;66637;-29.628;-49.938;2023-05-01T04:55:20;5.22;;;2.67;;
77522;SDS011;66637;-29.628;-49.938;2023-05-01T04:58:03;6.00;;;2.30;;
77522;SDS011;66637;-29.628;-49.938;2023-05-01T05:00:34;5.82;;;2.63;;
77522;SDS011;66637;-29.628;-49.938;2023-05-01T05:03:08;4.45;;;2.50;;
77522;SDS011;66637;-29.628;-49.938;2023-05-01T05:05:41;4.18;;;2.00;;
77522;SDS011;66637;-29.628;-49.938;2023-05-01T05:08:12;6.43;;;2.33;;
77522;SDS011;66637;-29.628;-49.938;2023-05-01T05:10:57;7.40;;;2.63;;
77522;SDS011;66637;-29.628;-49.938;2023-05-01T05:13:59;9.60;;;2.90;;
77522;SDS011;66637;-29.628;-49.938;2023-05-01T05:16:31;24.67;;;4.57;;
77522;SDS011;66637;-29.628;-49.938;2023-05-01T05:19:02;32.47;;;4.72;;
77522;SDS011;66637;-29.628;-49.938;2023-05-01T05:21:36;44.60;;;6.72;;
77522;SDS011;66637;-29.628;-49.938;2023-05-01T05:24:07;45.42;;;6.50;;
77522;SDS011;66637;-29.628;-49.938;2023-05-01T05:26:37;36.45;;;5.57;;
77522;SDS011;66637;-29.628;-49.938;2023-05-01T05:29:07;31.05;;;4.72;;
77522;SDS011;66637;-29.628;-49.938;2023-05-01T05:31:37;23.10;;;4.55;;
77522;SDS011;66637;-29.628;-49.938;2023-05-01T05:34:10;20.65;;;3.50;;
77522;SDS011;66637;-29.628;-49.938;2023-05-01T05:36:41;13.10;;;4.57;;
77522;SDS011;66637;-29.628;-49.938;2023-05-01T05:39:12;16.20;;;3.50;;
77522;SDS011;66637;-29.628;-49.938;2023-05-01T05:41:43;14.18;;;3.65;;
77522;SDS011;66637;-29.628;-49.938;2023-05-01T05:44:14;19.05;;;3.97;;
77522;SDS011;66637;-29.628;-49.938;2023-05-01T05:46:45;15.88;;;3.42;;
77522;SDS011;66637;-29.628;-49.938;2023-05-01T05:49:26;9.77;;;2.92;;
77522;SDS011;66637;-29.628;-49.938;2023-05-01T05:51:57;17.27;;;3.20;;
77522;SDS011;66637;-29.628;-49.938;2023-05-01T05:54:27;14.60;;;3.40;;
77522;SDS011;66637;-29.628;-49.938;2023-05-01T05:56:59;14.13;;;3.08;;
77522;SDS011;66637;-29.628;-49.938;2023-05-01T05:59:33;12.68;;;3.00;;
77522;SDS011;66637;-29.628;-49.938;2023-05-01T06:02:04;10.90;;;2.88;;
77522;SDS011;66637;-29.628;-49.938;2023-05-01T06:04:38;8.45;;;2.83;;
77522;SDS011;66637;-29.628;-49.938;2023-05-01T06:07:08;6.18;;;2.60;;
77522;SDS011;66637;-29.628;-49.938;2023-05-01T06:09:39;7.20;;;2.70;;
77522;SDS011;66637;-29.628;-49.938;2023-05-01T06:12:10;5.35;;;2.45;;
77522;SDS011;66637;-29.628;-49.938;2023-05-01T06:14:41;5.93;;;2.80;;
77522;SDS011;66637;-29.628;-49.938;2023-05-01T06:17:12;7.25;;;3.28;;
77522;SDS011;66637;-29.628;-49.938;2023-05-01T06:19:44;8.15;;;2.83;;
77522;SDS011;66637;-29.628;-49.938;2023-05-01T06:22:14;6.45;;;2.35;;
77522;SDS011;66637;-29.628;-49.938;2023-05-01T06:24:58;7.32;;;2.70;;
77522;SDS011;66637;-29.628;-49.938;2023-05-01T06:27:30;9.40;;;2.72;;
77522;SDS011;66637;-29.628;-49.938;2023-05-01T06:30:02;10.75;;;2.63;;
77522;SDS011;66637;-29.628;-49.938;2023-05-01T06:32:56;8.48;;;2.60;;
77522;SDS011;66637;-29.628;-49.938;2023-05-01T06:35:26;10.77;;;3.25;;
77522;SDS011;66637;-29.628;-49.938;2023-05-01T06:37:57;22.27;;;4.60;;
77522;SDS011;66637;-29.628;-49.938;2023-05-01T06:40:29;27.27;;;5.40;;
77522;SDS011;66637;-29.628;-49.938;2023-05-01T06:43:01;25.92;;;4.43;;
77522;SDS011;66637;-29.628;-49.938;2023-05-01T06:45:32;35.13;;;5.95;;
77522;SDS011;66637;-29.628;-49.938;2023-05-01T06:48:02;36.25;;;5.32;;
77522;SDS011;66637;-29.628;-49.938;2023-05-01T06:50:35;39.35;;;7.13;;
77522;SDS011;66637;-29.628;-49.938;2023-05-01T06:53:05;40.40;;;5.93;;
77522;SDS011;66637;-29.628;-49.938;2023-05-01T06:55:36;39.90;;;5.80;;
77522;SDS011;66637;-29.628;-49.938;2023-05-01T06:58:07;32.55;;;6.25;;
77522;SDS011;66637;-29.628;-49.938;2023-05-01T07:00:51;25.75;;;4.90;;
77522;SDS011;66637;-29.628;-49.938;2023-05-01T07:03:23;20.33;;;4.80;;
77522;SDS011;66637;-29.628;-49.938;2023-05-01T07:05:57;24.67;;;4.75;;
77522;SDS011;66637;-29.628;-49.938;2023-05-01T07:08:28;20.55;;;4.05;;
77522;SDS011;66637;-29.628;-49.938;2023-05-01T07:10:58;16.05;;;3.40;;
77522;SDS011;66637;-29.628;-49.938;2023-05-01T07:13:29;14.10;;;3.63;;
77522;SDS011;66637;-29.628;-49.938;2023-05-01T07:15:59;14.35;;;3.92;;
77522;SDS011;66637;-29.628;-49.938;2023-05-01T07:18:30;7.03;;;3.30;;
77522;SDS011;66637;-29.628;-49.938;2023-05-01T07:21:01;10.60;;;3.08;;
77522;SDS011;66637;-29.628;-49.938;2023-05-01T07:23:32;13.02;;;3.08;;
77522;SDS011;66637;-29.628;-49.938;2023-05-01T07:26:02;14.32;;;3.30;;
77522;SDS011;66637;-29.628;-49.938;2023-05-01T07:28:33;10.60;;;3.30;;
77522;SDS011;66637;-29.628;-49.938;2023-05-01T07:31:05;9.35;;;3.08;;
77522;SDS011;66637;-29.628;-49.938;2023-05-01T07:33:35;5.78;;;2.15;;
77522;SDS011;66637;-29.628;-49.938;2023-05-01T07:36:06;6.28;;;2.40;;
77522;SDS011;66637;-29.628;-49.938;2023-05-01T07:38:37;4.60;;;2.63;;
77522;SDS011;66637;-29.628;-49.938;2023-05-01T07:41:07;4.80;;;2.53;;
77522;SDS011;66637;-29.628;-49.938;2023-05-01T07:43:37;3.65;;;2.40;;
77522;SDS011;66637;-29.628;-49.938;2023-05-01T07:46:07;3.70;;;2.53;;
77522;SDS011;66637;-29.628;-49.938;2023-05-01T07:48:38;3.63;;;2.40;;
77522;SDS011;66637;-29.628;-49.938;2023-05-01T07:51:09;4.05;;;2.30;;
77522;SDS011;66637;-29.628;-49.938;2023-05-01T07:53:39;6.72;;;2.63;;
77522;SDS011;66637;-29.628;-49.938;2023-05-01T07:56:10;3.33;;;2.20;;
77522;SDS011;66637;-29.628;-49.938;2023-05-01T07:58:40;3.28;;;2.20;;
77522;SDS011;66637;-29.628;-49.938;2023-05-01T08:01:12;4.18;;;2.60;;
77522;SDS011;66637;-29.628;-49.938;2023-05-01T08:03:43;5.10;;;2.53;;
77522;SDS011;66637;-29.628;-49.938;2023-05-01T08:06:17;4.43;;;2.50;;
77522;SDS011;66637;-29.628;-49.938;2023-05-01T08:08:47;3.40;;;2.40;;
77522;SDS011;66637;-29.628;-49.938;2023-05-01T08:11:17;4.47;;;2.25;;
77522;SDS011;66637;-29.628;-49.938;2023-05-01T08:13:49;4.38;;;2.30;;
77522;SDS011;66637;-29.628;-49.938;2023-05-01T08:16:20;8.77;;;2.67;;
77522;SDS011;66637;-29.628;-49.938;2023-05-01T08:18:51;7.97;;;2.83;;
77522;SDS011;66637;-29.628;-49.938;2023-05-01T08:21:21;11.50;;;2.80;;
77522;SDS011;66637;-29.628;-49.938;2023-05-01T08:23:53;12.57;;;2.92;;
77522;SDS011;66637;-29.628;-49.938;2023-05-01T08:26:24;7.45;;;2.72;;
77522;SDS011;66637;-29.628;-49.938;2023-05-01T08:28:54;11.13;;;2.90;;
77522;SDS011;66637;-29.628;-49.938;2023-05-01T08:31:26;9.88;;;2.90;;
77522;SDS011;66637;-29.628;-49.938;2023-05-01T08:33:57;10.55;;;2.90;;
77522;SDS011;66637;-29.628;-49.938;2023-05-01T08:36:28;13.07;;;3.80;;
77522;SDS011;66637;-29.628;-49.938;2023-05-01T08:38:59;12.65;;;3.38;;
77522;SDS011;66637;-29.628;-49.938;2023-05-01T08:41:29;10.38;;;3.22;;
77522;SDS011;66637;-29.628;-49.938;2023-05-01T08:44:02;19.48;;;4.53;;
77522;SDS011;66637;-29.628;-49.938;2023-05-01T08:46:42;12.70;;;3.40;;
77522;SDS011;66637;-29.628;-49.938;2023-05-01T08:49:35;5.40;;;2.90;;
77522;SDS011;66637;-29.628;-49.938;2023-05-01T08:52:13;7.68;;;3.03;;
77522;SDS011;66637;-29.628;-49.938;2023-05-01T08:54:44;10.77;;;3.13;;
77522;SDS011;66637;-29.628;-49.938;2023-05-01T08:57:18;14.55;;;3.83;;
77522;SDS011;66637;-29.628;-49.938;2023-05-01T08:59:49;11.23;;;3.42;;
77522;SDS011;66637;-29.628;-49.938;2023-05-01T09:02:22;6.63;;;3.10;;
77522;SDS011;66637;-29.628;-49.938;2023-05-01T09:04:55;10.55;;;2.97;;
77522;SDS011;66637;-29.628;-49.938;2023-05-01T09:07:27;10.15;;;2.97;;
77522;SDS011;66637;-29.628;-49.938;2023-05-01T09:09:58;7.00;;;3.00;;
77522;SDS011;66637;-29.628;-49.938;2023-05-01T09:12:29;6.78;;;2.60;;
77522;SDS011;66637;-29.628;-49.938;2023-05-01T09:15:03;7.75;;;3.00;;
77522;SDS011;66637;-29.628;-49.938;2023-05-01T09:17:37;5.32;;;2.42;;
77522;SDS011;66637;-29.628;-49.938;2023-05-01T09:20:08;11.13;;;2.25;;
77522;SDS011;66637;-29.628;-49.938;2023-05-01T09:22:40;3.53;;;2.17;;
77522;SDS011;66637;-29.628;-49.938;2023-05-01T09:25:10;2.92;;;2.20;;
77522;SDS011;66637;-29.628;-49.938;2023-05-01T09:27:41;5.65;;;1.90;;
77522;SDS011;66637;-29.628;-49.938;2023-05-01T09:30:36;4.32;;;2.00;;
77522;SDS011;66637;-29.628;-49.938;2023-05-01T09:33:12;3.47;;;2.03;;
77522;SDS011;66637;-29.628;-49.938;2023-05-01T09:35:48;3.78;;;1.95;;
77522;SDS011;66637;-29.628;-49.938;2023-05-01T09:38:24;2.47;;;1.92;;
77522;SDS011;66637;-29.628;-49.938;2023-05-01T09:40:57;3.22;;;1.90;;
77522;SDS011;66637;-29.628;-49.938;2023-05-01T09:43:33;2.95;;;1.80;;
77522;SDS011;66637;-29.628;-49.938;2023-05-01T09:46:06;4.15;;;1.92;;
77522;SDS011;66637;-29.628;-49.938;2023-05-01T09:48:39;3.35;;;1.80;;
77522;SDS011;66637;-29.628;-49.938;2023-05-01T09:51:22;3.47;;;1.75;;
77522;SDS011;66637;-29.628;-49.938;2023-05-01T09:53:56;3.05;;;1.63;;
77522;SDS011;66637;-29.628;-49.938;2023-05-01T09:56:29;3.40;;;1.90;;
77522;SDS011;66637;-29.628;-49.938;2023-05-01T09:59:13;3.13;;;1.73;;
77522;SDS011;66637;-29.628;-49.938;2023-05-01T10:01:51;3.60;;;1.85;;
77522;SDS011;66637;-29.628;-49.938;2023-05-01T10:04:32;3.50;;;1.88;;
77522;SDS011;66637;-29.628;-49.938;2023-05-01T10:07:10;3.25;;;1.80;;
77522;SDS011;66637;-29.628;-49.938;2023-05-01T10:09:42;2.38;;;1.77;;
77522;SDS011;66637;-29.628;-49.938;2023-05-01T10:12:21;2.53;;;1.75;;
77522;SDS011;66637;-29.628;-49.938;2023-05-01T10:14:55;3.00;;;1.50;;
77522;SDS011;66637;-29.628;-49.938;2023-05-01T10:17:34;3.60;;;1.63;;
77522;SDS011;66637;-29.628;-49.938;2023-05-01T10:20:07;1.85;;;1.50;;
77522;SDS011;66637;-29.628;-49.938;2023-05-01T10:22:41;2.80;;;1.77;;
77522;SDS011;66637;-29.628;-49.938;2023-05-01T10:25:12;2.42;;;1.67;;
77522;SDS011;66637;-29.628;-49.938;2023-05-01T10:27:44;4.82;;;1.90;;
77522;SDS011;66637;-29.628;-49.938;2023-05-01T10:30:16;2.92;;;1.85;;
77522;SDS011;66637;-29.628;-49.938;2023-05-01T10:32:48;2.78;;;1.58;;
77522;SDS011;66637;-29.628;-49.938;2023-05-01T10:35:20;3.80;;;1.75;;
77522;SDS011;66637;-29.628;-49.938;2023-05-01T10:38:18;3.92;;;1.77;;
77522;SDS011;66637;-29.628;-49.938;2023-05-01T10:40:52;2.42;;;1.52;;
77522;SDS011;66637;-29.628;-49.938;2023-05-01T10:43:23;2.55;;;1.73;;
77522;SDS011;66637;-29.628;-49.938;2023-05-01T10:53:41;2.83;;;1.60;;
77522;SDS011;66637;-29.628;-49.938;2023-05-01T11:04:06;2.25;;;1.48;;
77522;SDS011;66637;-29.628;-49.938;2023-05-01T11:09:40;2.10;;;1.60;;
77522;SDS011;66637;-29.628;-49.938;2023-05-01T11:12:14;2.97;;;1.55;;
77522;SDS011;66637;-29.628;-49.938;2023-05-01T11:15:05;2.67;;;1.52;;
77522;SDS011;66637;-29.628;-49.938;2023-05-01T11:20:12;2.67;;;1.90;;
77522;SDS011;66637;-29.628;-49.938;2023-05-01T11:23:03;2.53;;;1.50;;
77522;SDS011;66637;-29.628;-49.938;2023-05-01T11:25:34;2.95;;;1.40;;
77522;SDS011;66637;-29.628;-49.938;2023-05-01T11:28:06;2.20;;;1.80;;
77522;SDS011;66637;-29.628;-49.938;2023-05-01T11:30:38;2.50;;;1.42;;
77522;SDS011;66637;-29.628;-49.938;2023-05-01T11:33:10;3.22;;;1.60;;
77522;SDS011;66637;-29.628;-49.938;2023-05-01T11:35:42;1.80;;;1.60;;
77522;SDS011;66637;-29.628;-49.938;2023-05-01T11:38:17;2.97;;;1.50;;
77522;SDS011;66637;-29.628;-49.938;2023-05-01T11:40:51;2.25;;;1.60;;
77522;SDS011;66637;-29.628;-49.938;2023-05-01T11:43:24;1.60;;;1.30;;
77522;SDS011;66637;-29.628;-49.938;2023-05-01T11:45:54;2.45;;;1.45;;
77522;SDS011;66637;-29.628;-49.938;2023-05-01T11:48:31;2.95;;;1.48;;
77522;SDS011;66637;-29.628;-49.938;2023-05-01T11:51:10;2.50;;;1.50;;
77522;SDS011;66637;-29.628;-49.938;2023-05-01T11:53:42;2.78;;;1.70;;
77522;SDS011;66637;-29.628;-49.938;2023-05-01T11:56:18;2.38;;;1.30;;
77522;SDS011;66637;-29.628;-49.938;2023-05-01T11:58:55;1.92;;;1.42;;
77522;SDS011;66637;-29.628;-49.938;2023-05-01T12:01:34;2.40;;;1.60;;
77522;SDS011;66637;-29.628;-49.938;2023-05-01T12:04:06;2.22;;;1.45;;
77522;SDS011;66637;-29.628;-49.938;2023-05-01T12:06:44;1.70;;;1.20;;
77522;SDS011;66637;-29.628;-49.938;2023-05-01T12:09:16;2.78;;;1.58;;
77522;SDS011;66637;-29.628;-49.938;2023-05-01T12:11:49;3.80;;;1.50;;
77522;SDS011;66637;-29.628;-49.938;2023-05-01T12:14:21;3.50;;;1.60;;
77522;SDS011;66637;-29.628;-49.938;2023-05-01T12:16:52;2.70;;;1.40;;
77522;SDS011;66637;-29.628;-49.938;2023-05-01T12:19:25;1.67;;;1.55;;
77522;SDS011;66637;-29.628;-49.938;2023-05-01T12:22:06;2.10;;;1.45;;
77522;SDS011;66637;-29.628;-49.938;2023-05-01T12:24:37;5.50;;;1.65;;
77522;SDS011;66637;-29.628;-49.938;2023-05-01T12:27:20;2.97;;;1.58;;
77522;SDS011;66637;-29.628;-49.938;2023-05-01T12:29:52;3.83;;;1.23;;
77522;SDS011;66637;-29.628;-49.938;2023-05-01T12:32:28;3.03;;;1.33;;
77522;SDS011;66637;-29.628;-49.938;2023-05-01T12:35:12;2.17;;;1.25;;
77522;SDS011;66637;-29.628;-49.938;2023-05-01T12:37:45;1.95;;;1.70;;
77522;SDS011;66637;-29.628;-49.938;2023-05-01T12:40:17;1.92;;;1.42;;
77522;SDS011;66637;-29.628;-49.938;2023-05-01T12:42:57;2.60;;;1.50;;
77522;SDS011;66637;-29.628;-49.938;2023-05-01T12:45:28;1.67;;;1.42;;
77522;SDS011;66637;-29.628;-49.938;2023-05-01T12:47:58;1.80;;;1.17;;
77522;SDS011;66637;-29.628;-49.938;2023-05-01T12:50:34;2.45;;;1.40;;
77522;SDS011;66637;-29.628;-49.938;2023-05-01T12:56:00;4.10;;;1.70;;
77522;SDS011;66637;-29.628;-49.938;2023-05-01T12:58:35;5.32;;;1.80;;
77522;SDS011;66637;-29.628;-49.938;2023-05-01T13:01:07;3.50;;;1.30;;
77522;SDS011;66637;-29.628;-49.938;2023-05-01T13:03:43;2.67;;;1.38;;
77522;SDS011;66637;-29.628;-49.938;2023-05-01T13:06:14;1.88;;;1.42;;
77522;SDS011;66637;-29.628;-49.938;2023-05-01T13:08:46;1.50;;;1.30;;
77522;SDS011;66637;-29.628;-49.938;2023-05-01T13:11:18;3.28;;;1.50;;
77522;SDS011;66637;-29.628;-49.938;2023-05-01T13:13:50;2.58;;;1.23;;
77522;SDS011;66637;-29.628;-49.938;2023-05-01T13:16:22;2.97;;;1.33;;
77522;SDS011;66637;-29.628;-49.938;2023-05-01T13:18:55;1.92;;;1.20;;
77522;SDS011;66637;-29.628;-49.938;2023-05-01T13:21:25;2.20;;;1.45;;
77522;SDS011;66637;-29.628;-49.938;2023-05-01T13:23:58;2.28;;;1.20;;
77522;SDS011;66637;-29.628;-49.938;2023-05-01T13:26:32;2.65;;;1.35;;
77522;SDS011;66637;-29.628;-49.938;2023-05-01T13:29:05;1.48;;;1.02;;
77522;SDS011;66637;-29.628;-49.938;2023-05-01T13:31:43;1.50;;;1.17;;
77522;SDS011;66637;-29.628;-49.938;2023-05-01T13:34:16;2.08;;;1.27;;
77522;SDS011;66637;-29.628;-49.938;2023-05-01T13:36:51;2.03;;;1.20;;
77522;SDS011;66637;-29.628;-49.938;2023-05-01T13:39:24;2.25;;;1.20;;
77522;SDS011;66637;-29.628;-49.938;2023-05-01T13:41:54;2.95;;;1.52;;
77522;SDS011;66637;-29.628;-49.938;2023-05-01T13:44:26;1.42;;;1.30;;
77522;SDS011;66637;-29.628;-49.938;2023-05-01T13:47:00;2.10;;;1.30;;
77522;SDS011;66637;-29.628;-49.938;2023-05-01T13:49:32;2.72;;;1.10;;
77522;SDS011;66637;-29.628;-49.938;2023-05-01T13:52:03;2.97;;;1.48;;
77522;SDS011;66637;-29.628;-49.938;2023-05-01T13:54:37;2.53;;;1.30;;
77522;SDS011;66637;-29.628;-49.938;2023-05-01T13:57:11;2.53;;;1.30;;
77522;SDS011;66637;-29.628;-49.938;2023-05-01T13:59:43;3.13;;;1.30;;
77522;SDS011;66637;-29.628;-49.938;2023-05-01T14:02:18;1.90;;;1.30;;
77522;SDS011;66637;-29.628;-49.938;2023-05-01T14:04:52;14.52;;;3.17;;
77522;SDS011;66637;-29.628;-49.938;2023-05-01T14:07:28;12.45;;;2.35;;
77522;SDS011;66637;-29.628;-49.938;2023-05-01T14:10:00;33.38;;;5.65;;
77522;SDS011;66637;-29.628;-49.938;2023-05-01T14:12:32;13.95;;;3.10;;
77522;SDS011;66637;-29.628;-49.938;2023-05-01T14:15:03;23.95;;;4.28;;
77522;SDS011;66637;-29.628;-49.938;2023-05-01T14:17:36;32.22;;;4.88;;
77522;SDS011;66637;-29.628;-49.938;2023-05-01T14:20:08;10.98;;;2.55;;
77522;SDS011;66637;-29.628;-49.938;2023-05-01T14:22:40;11.68;;;2.88;;
77522;SDS011;66637;-29.628;-49.938;2023-05-01T14:27:53;12.75;;;3.20;;
77522;SDS011;66637;-29.628;-49.938;2023-05-01T14:30:33;19.23;;;4.30;;
77522;SDS011;66637;-29.628;-49.938;2023-05-01T14:33:12;10.57;;;3.10;;
77522;SDS011;66637;-29.628;-49.938;2023-05-01T14:35:48;8.93;;;2.35;;
77522;SDS011;66637;-29.628;-49.938;2023-05-01T14:38:21;9.55;;;2.80;;
77522;SDS011;66637;-29.628;-49.938;2023-05-01T14:40:52;6.78;;;2.55;;
77522;SDS011;66637;-29.628;-49.938;2023-05-01T14:43:23;23.35;;;4.10;;
77522;SDS011;66637;-29.628;-49.938;2023-05-01T14:45:56;16.33;;;3.97;;
77522;SDS011;66637;-29.628;-49.938;2023-05-01T14:48:33;21.10;;;4.13;;
77522;SDS011;66637;-29.628;-49.938;2023-05-01T14:51:13;14.63;;;3.50;;
77522;SDS011;66637;-29.628;-49.938;2023-05-01T14:53:48;14.93;;;3.80;;
77522;SDS011;66637;-29.628;-49.938;2023-05-01T14:56:19;13.77;;;3.15;;
77522;SDS011;66637;-29.628;-49.938;2023-05-01T14:58:49;21.88;;;4.00;;
77522;SDS011;66637;-29.628;-49.938;2023-05-01T15:01:19;15.85;;;3.83;;
77522;SDS011;66637;-29.628;-49.938;2023-05-01T15:03:51;22.15;;;4.03;;
77522;SDS011;66637;-29.628;-49.938;2023-05-01T15:06:23;13.00;;;3.65;;
77522;SDS011;66637;-29.628;-49.938;2023-05-01T15:08:55;17.23;;;4.20;;
77522;SDS011;66637;-29.628;-49.938;2023-05-01T15:11:25;16.42;;;4.07;;
77522;SDS011;66637;-29.628;-49.938;2023-05-01T15:13:56;14.27;;;3.80;;
77522;SDS011;66637;-29.628;-49.938;2023-05-01T15:16:26;17.70;;;3.60;;
77522;SDS011;66637;-29.628;-49.938;2023-05-01T15:18:57;19.10;;;3.95;;
77522;SDS011;66637;-29.628;-49.938;2023-05-01T15:21:28;19.05;;;4.60;;
77522;SDS011;66637;-29.628;-49.938;2023-05-01T15:23:58;29.75;;;4.63;;
77522;SDS011;66637;-29.628;-49.938;2023-05-01T15:26:30;17.70;;;4.10;;
77522;SDS011;66637;-29.628;-49.938;2023-05-01T15:29:00;31.52;;;5.05;;
77522;SDS011;66637;-29.628;-49.938;2023-05-01T15:31:32;18.35;;;5.13;;
77522;SDS011;66637;-29.628;-49.938;2023-05-01T15:34:02;22.73;;;3.75;;
77522;SDS011;66637;-29.628;-49.938;2023-05-01T15:36:33;11.48;;;2.88;;
77522;SDS011;66637;-29.628;-49.938;2023-05-01T15:39:04;10.55;;;3.00;;
77522;SDS011;66637;-29.628;-49.938;2023-05-01T15:41:41;4.45;;;2.13;;
77522;SDS011;66637;-29.628;-49.938;2023-05-01T15:44:12;4.70;;;2.63;;
77522;SDS011;66637;-29.628;-49.938;2023-05-01T15:46:44;4.18;;;2.30;;
77522;SDS011;66637;-29.628;-49.938;2023-05-01T15:49:19;9.25;;;3.20;;
77522;SDS011;66637;-29.628;-49.938;2023-05-01T15:51:50;7.53;;;3.33;;
77522;SDS011;66637;-29.628;-49.938;2023-05-01T15:54:20;8.10;;;2.50;;
77522;SDS011;66637;-29.628;-49.938;2023-05-01T15:56:52;5.15;;;2.60;;
77522;SDS011;66637;-29.628;-49.938;2023-05-01T15:59:23;12.20;;;3.20;;
77522;SDS011;66637;-29.628;-49.938;2023-05-01T16:01:55;20.42;;;3.78;;
77522;SDS011;66637;-29.628;-49.938;2023-05-01T16:04:26;19.58;;;3.65;;
77522;SDS011;66637;-29.628;-49.938;2023-05-01T16:06:56;13.40;;;3.38;;
77522;SDS011;66637;-29.628;-49.938;2023-05-01T16:09:28;21.70;;;4.47;;
77522;SDS011;66637;-29.628;-49.938;2023-05-01T16:12:01;16.98;;;3.90;;
77522;SDS011;66637;-29.628;-49.938;2023-05-01T16:14:35;24.92;;;4.45;;
77522;SDS011;66637;-29.628;-49.938;2023-05-01T16:17:10;20.00;;;3.78;;
77522;SDS011;66637;-29.628;-49.938;2023-05-01T16:19:41;13.65;;;3.22;;
77522;SDS011;66637;-29.628;-49.938;2023-05-01T16:22:15;16.30;;;4.32;;
77522;SDS011;66637;-29.628;-49.938;2023-05-01T16:24:45;11.05;;;3.15;;